Time;durP1;ratioP1;P1;durP2;ratioP2;P2;SDS_P1;SDS_P2;PMS_P1;PMS_P2;Temp;Humidity;BMP_temperature;BMP_pressure;BME280_temperature;BME280_humidity;BME280_pressure;Samples;Min_cycle;Max_cycle;Signal;HPM_P1;HPM_P2
2021/09/11 00:02:07;;;;;;;8.23;5.70;;;;;;;16.39;100.00;100405.53;5076881;28;20152;-90
2021/09/11 00:04:32;;;;;;;9.95;5.50;;;;;;;16.40;100.00;100404.59;5076805;28;20024;-90
2021/09/11 00:06:58;;;;;;;9.73;5.97;;;;;;;16.41;100.00;100406.31;5094958;28;20027;-90
2021/09/11 00:09:23;;;;;;;9.80;6.18;;;;;;;16.44;100.00;100395.72;5076854;28;20097;-90
2021/09/11 00:11:48;;;;;;;8.55;5.97;;;;;;;16.44;100.00;100393.09;5076832;28;20020;-90
2021/09/11 00:14:14;;;;;;;9.82;6.47;;;;;;;16.48;100.00;100393.78;5076692;28;20047;-90
2021/09/11 00:16:39;;;;;;;10.45;7.60;;;;;;;16.49;100.00;100396.31;5076651;28;20059;-90
2021/09/11 00:19:05;;;;;;;10.38;7.40;;;;;;;16.49;100.00;100400.72;5094689;28;20034;-90
2021/09/11 00:21:30;;;;;;;14.10;7.72;;;;;;;16.49;100.00;100398.09;5076065;28;20043;-90
2021/09/11 00:23:55;;;;;;;12.10;7.07;;;;;;;16.47;100.00;100395.56;5076412;28;20027;-90
2021/09/11 00:26:20;;;;;;;11.70;8.13;;;;;;;16.46;100.00;100393.00;5094595;28;20028;-90
2021/09/11 00:28:46;;;;;;;13.75;7.60;;;;;;;16.46;100.00;100400.84;5094703;28;20016;-90
2021/09/11 00:31:11;;;;;;;15.65;8.60;;;;;;;16.37;100.00;100396.03;5076338;28;20024;-90
2021/09/11 00:33:37;;;;;;;11.63;7.95;;;;;;;16.32;100.00;100398.88;5077488;28;20110;-90
2021/09/11 00:36:02;;;;;;;13.55;8.20;;;;;;;16.28;100.00;100399.91;5094336;28;20480;-90
2021/09/11 00:38:27;;;;;;;11.55;8.30;;;;;;;16.26;100.00;100399.16;5076140;28;20027;-90
2021/09/11 00:40:53;;;;;;;11.80;8.13;;;;;;;16.22;100.00;100395.78;5076207;28;20043;-90
2021/09/11 00:43:23;;;;;;;12.70;8.20;;;;;;;16.21;100.00;100403.72;5094355;28;20028;-90
2021/09/11 00:45:49;;;;;;;16.95;8.43;;;;;;;16.22;100.00;100398.41;5094189;28;20480;-90
2021/09/11 00:48:14;;;;;;;12.65;8.90;;;;;;;16.21;100.00;100398.50;5094253;28;20034;-90
2021/09/11 00:50:39;;;;;;;11.60;9.25;;;;;;;16.16;100.00;100396.06;5075986;28;20119;-90
2021/09/11 00:53:05;;;;;;;13.38;10.15;;;;;;;16.14;100.00;100386.59;5075848;28;20024;-90
2021/09/11 00:55:33;;;;;;;13.88;10.38;;;;;;;16.10;100.00;100380.63;5076511;28;20528;-89
2021/09/11 00:57:58;;;;;;;14.27;10.27;;;;;;;16.05;100.00;100382.63;5075933;28;20077;-90
2021/09/11 01:00:24;;;;;;;18.73;11.60;;;;;;;16.07;100.00;100379.03;5075798;28;20016;-90
2021/09/11 01:02:49;;;;;;;16.42;11.07;;;;;;;16.06;100.00;100374.69;5075669;28;20036;-91
2021/09/11 01:05:15;;;;;;;16.55;11.48;;;;;;;16.04;100.00;100373.03;5075990;28;20025;-90
2021/09/11 01:07:43;;;;;;;18.08;12.45;;;;;;;16.03;100.00;100379.22;5075725;28;20027;-90
2021/09/11 01:10:09;;;;;;;15.95;10.80;;;;;;;16.01;100.00;100383.66;5075901;28;20012;-90
2021/09/11 01:12:36;;;;;;;17.45;11.20;;;;;;;15.95;100.00;100386.53;5075580;28;20031;-89
2021/09/11 01:15:07;;;;;;;17.25;10.45;;;;;;;15.97;100.00;100379.47;5075835;28;20470;-89
2021/09/11 01:17:32;;;;;;;17.23;11.38;;;;;;;15.95;100.00;100386.53;5075656;28;20055;-90
2021/09/11 01:19:57;;;;;;;13.30;10.38;;;;;;;15.95;100.00;100399.59;5075699;28;20071;-90
2021/09/11 01:22:23;;;;;;;14.10;9.98;;;;;;;15.90;100.00;100397.19;5093602;28;20028;-90
2021/09/11 01:24:59;;;;;;;17.33;10.85;;;;;;;15.84;100.00;100400.94;5075559;28;20116;-90
2021/09/11 01:27:26;;;;;;;15.63;9.70;;;;;;;15.81;100.00;100410.66;5075395;28;20028;-90
2021/09/11 01:30:05;;;;;;;16.90;10.60;;;;;;;15.75;100.00;100403.94;5075502;28;20020;-90
2021/09/11 01:32:32;;;;;;;16.70;9.45;;;;;;;15.80;100.00;100403.75;5075109;28;20028;-90
2021/09/11 01:34:58;;;;;;;13.32;10.25;;;;;;;15.82;100.00;100413.19;5075390;28;20023;-90
2021/09/11 01:37:23;;;;;;;14.93;10.68;;;;;;;15.80;100.00;100408.97;5093488;28;20020;-90
2021/09/11 01:39:52;;;;;;;15.05;11.30;;;;;;;15.79;100.00;100415.09;5075373;28;20024;-90
2021/09/11 01:42:20;;;;;;;17.42;10.70;;;;;;;15.82;100.00;100418.44;5075356;28;20460;-90
2021/09/11 01:44:52;;;;;;;14.43;10.70;;;;;;;15.86;100.00;100416.56;5075381;28;20035;-90
2021/09/11 01:47:18;;;;;;;16.20;11.60;;;;;;;15.87;100.00;100416.50;5075424;28;20020;-90
2021/09/11 01:49:44;;;;;;;15.90;11.45;;;;;;;15.85;100.00;100417.47;5093725;28;20104;-90
2021/09/11 01:52:11;;;;;;;16.88;11.00;;;;;;;15.84;100.00;100416.63;5092177;28;20551;-90
2021/09/11 01:54:37;;;;;;;17.85;11.70;;;;;;;15.82;100.00;100412.38;5075110;28;20028;-90
2021/09/11 01:57:04;;;;;;;17.17;12.07;;;;;;;15.78;100.00;100411.66;5075240;28;20024;-90
2021/09/11 01:59:30;;;;;;;17.67;11.57;;;;;;;15.75;100.00;100416.16;5075101;28;20047;-89
2021/09/11 02:01:55;;;;;;;16.02;11.98;;;;;;;15.75;100.00;100416.16;5075167;28;20479;-90
2021/09/11 02:04:21;;;;;;;19.60;13.23;;;;;;;15.64;100.00;100417.44;5091880;28;20028;-90
2021/09/11 02:06:49;;;;;;;20.75;14.18;;;;;;;15.68;100.00;100407.72;5076229;28;20031;-90
2021/09/11 02:09:14;;;;;;;22.77;15.25;;;;;;;15.70;100.00;100411.13;5092582;28;20110;-90
2021/09/11 02:11:40;;;;;;;24.25;15.63;;;;;;;15.69;100.00;100412.03;5076089;28;20051;-90
2021/09/11 02:14:05;;;;;;;29.15;16.08;;;;;;;15.62;100.00;100411.41;5075096;28;20024;-90
2021/09/11 02:16:31;;;;;;;29.02;16.95;;;;;;;15.69;100.00;100412.03;5075398;28;20055;-90
2021/09/11 02:18:57;;;;;;;31.38;19.17;;;;;;;15.65;100.00;100411.28;5075280;28;20048;-90
2021/09/11 02:21:22;;;;;;;32.35;18.35;;;;;;;15.68;100.00;100414.72;5075622;28;20365;-90
2021/09/11 02:23:48;;;;;;;30.45;19.65;;;;;;;15.73;100.00;100399.69;5075441;28;20024;-90
2021/09/11 02:26:14;;;;;;;34.88;19.70;;;;;;;15.77;100.00;100402.09;5074923;28;20032;-90
2021/09/11 02:28:39;;;;;;;39.53;21.75;;;;;;;15.91;100.00;100411.13;5074877;28;20020;-90
2021/09/11 02:31:05;;;;;;;35.17;21.50;;;;;;;15.99;100.00;100415.13;5075335;28;20089;-90
2021/09/11 02:33:30;;;;;;;43.00;22.38;;;;;;;16.05;100.00;100408.78;5074874;28;20020;-90
2021/09/11 02:35:56;;;;;;;44.05;22.20;;;;;;;16.05;100.00;100419.25;5075056;28;20480;-90
2021/09/11 02:38:21;;;;;;;43.30;23.45;;;;;;;16.10;100.00;100423.38;5091870;28;20422;-91
2021/09/11 02:40:46;;;;;;;45.90;23.23;;;;;;;16.15;100.00;100419.69;5074929;28;20020;-90
2021/09/11 02:43:17;;;;;;;44.35;23.10;;;;;;;16.15;100.00;100420.53;5075618;28;20055;-91
2021/09/11 02:45:45;;;;;;;50.22;25.30;;;;;;;16.19;100.00;100429.94;5079625;28;20048;-90
2021/09/11 02:48:11;;;;;;;48.47;24.35;;;;;;;16.20;100.00;100428.19;5079399;28;20031;-90
2021/09/11 02:50:44;;;;;;;50.25;26.25;;;;;;;16.18;100.00;100424.78;5078791;28;20013;-90
2021/09/11 02:53:10;;;;;;;72.32;26.15;;;;;;;16.16;100.00;100427.47;5078603;28;20475;-91
2021/09/11 02:55:36;;;;;;;81.88;28.30;;;;;;;16.16;100.00;100432.69;5078373;28;20036;-90
2021/09/11 02:58:02;;;;;;;58.08;28.02;;;;;;;16.19;100.00;100431.72;5078339;28;20024;-90
2021/09/11 03:00:30;;;;;;;59.28;27.35;;;;;;;16.21;100.00;100432.50;5095334;28;20373;-90
2021/09/11 03:02:55;;;;;;;50.72;25.30;;;;;;;16.21;100.00;100432.50;5078397;28;20028;-90
2021/09/11 03:05:23;;;;;;;48.53;23.95;;;;;;;16.15;100.00;100432.78;5077924;28;20027;-90
2021/09/11 03:07:49;;;;;;;41.85;23.52;;;;;;;16.08;100.00;100437.44;5095236;28;20487;-90
2021/09/11 03:10:17;;;;;;;37.75;21.35;;;;;;;16.08;100.00;100429.56;5078209;28;20017;-91
2021/09/11 03:12:43;;;;;;;36.45;20.88;;;;;;;16.09;100.00;100431.25;5078966;28;20402;-91
2021/09/11 03:15:09;;;;;;;35.15;20.80;;;;;;;16.09;100.00;100431.25;5077669;28;20027;-91
2021/09/11 03:17:34;;;;;;;35.92;19.75;;;;;;;16.07;100.00;100426.13;5077834;28;20107;-91
2021/09/11 03:20:00;;;;;;;33.28;19.75;;;;;;;16.10;100.00;100428.59;5077911;28;20552;-90
2021/09/11 03:22:25;;;;;;;39.17;20.27;;;;;;;16.09;100.00;100421.66;5077815;28;20020;-90
2021/09/11 03:24:50;;;;;;;35.30;19.60;;;;;;;16.08;100.00;100429.56;5094589;28;20047;-90
2021/09/11 03:27:16;;;;;;;32.00;18.27;;;;;;;16.06;100.00;100426.16;5077972;28;20023;-90
2021/09/11 03:29:41;;;;;;;40.75;20.83;;;;;;;16.06;100.00;100432.25;5078427;28;20015;-90
2021/09/11 03:32:09;;;;;;;35.00;20.23;;;;;;;16.07;100.00;100430.47;5077594;28;20111;-90
2021/09/11 03:34:34;;;;;;;37.67;20.50;;;;;;;16.06;100.00;100426.16;5077564;28;20023;-90
2021/09/11 03:37:00;;;;;;;46.30;21.05;;;;;;;16.07;100.00;100430.47;5077486;28;20026;-90
2021/09/11 03:39:26;;;;;;;36.97;20.98;;;;;;;16.11;100.00;100424.22;5077663;28;20078;-90
2021/09/11 03:41:51;;;;;;;46.78;22.52;;;;;;;16.11;100.00;100419.81;5077470;28;20020;-90
2021/09/11 03:44:17;;;;;;;44.63;23.00;;;;;;;16.14;100.00;100421.47;5077757;28;20028;-90
2021/09/11 03:46:42;;;;;;;52.47;23.70;;;;;;;16.15;100.00;100423.16;5077182;28;20111;-90
2021/09/11 03:49:08;;;;;;;53.75;22.60;;;;;;;16.11;100.00;100424.22;5077175;28;20016;-90
2021/09/11 03:51:34;;;;;;;44.22;21.98;;;;;;;16.13;100.00;100416.28;5077721;28;20093;-90
2021/09/11 03:54:00;;;;;;;45.63;23.38;;;;;;;16.11;100.00;100414.59;5100286;22;20038;-85
2021/09/11 03:56:26;;;;;;;43.60;22.85;;;;;;;16.13;100.00;100424.13;5078402;28;20032;-85
2021/09/11 03:58:51;;;;;;;41.28;22.88;;;;;;;16.16;100.00;100427.47;5078823;28;20107;-85
2021/09/11 04:01:16;;;;;;;43.05;22.67;;;;;;;16.11;100.00;100432.91;5080474;28;20392;-85
2021/09/11 04:03:41;;;;;;;42.97;23.88;;;;;;;16.13;100.00;100437.22;5102375;28;20095;-85
2021/09/11 04:06:07;;;;;;;41.33;23.77;;;;;;;16.10;100.00;100438.19;5091984;28;20032;-86
2021/09/11 04:08:32;;;;;;;39.88;22.38;;;;;;;16.13;100.00;100440.69;5079172;28;20502;-86
2021/09/11 04:10:58;;;;;;;45.70;22.38;;;;;;;16.11;100.00;100437.28;5078641;28;20020;-86
2021/09/11 04:13:24;;;;;;;64.05;24.77;;;;;;;16.03;100.00;100437.59;5078338;28;20024;-86
2021/09/11 04:15:50;;;;;;;46.53;24.65;;;;;;;16.10;100.00;100438.19;5096350;28;20030;-85
2021/09/11 04:18:15;;;;;;;48.95;23.92;;;;;;;16.09;100.00;100439.97;5077765;28;20042;-86
2021/09/11 04:20:40;;;;;;;43.47;23.80;;;;;;;16.17;100.00;100444.88;5077757;28;20020;-85
2021/09/11 04:23:06;;;;;;;47.90;24.77;;;;;;;16.13;100.00;100435.44;5077785;28;20028;-85
2021/09/11 04:25:31;;;;;;;47.40;24.63;;;;;;;16.13;100.00;100440.69;5077834;28;20099;-85
2021/09/11 04:27:56;;;;;;;45.85;24.60;;;;;;;16.14;100.00;100437.16;5077879;28;20471;-86
2021/09/11 04:30:22;;;;;;;46.83;24.30;;;;;;;16.16;100.00;100443.16;5077655;28;20031;-86
2021/09/11 04:32:47;;;;;;;51.75;25.40;;;;;;;16.16;100.00;100445.78;5078879;28;20016;-86
2021/09/11 04:35:12;;;;;;;49.30;26.25;;;;;;;16.12;100.00;100446.84;5078504;28;20395;-85
2021/09/11 04:37:38;;;;;;;55.45;26.67;;;;;;;16.08;100.00;100450.50;5079238;28;20020;-85
2021/09/11 04:40:03;;;;;;;44.88;24.30;;;;;;;16.15;100.00;100446.69;5079356;28;20543;-85
2021/09/11 04:42:29;;;;;;;60.63;27.33;;;;;;;16.16;100.00;100443.16;5097176;28;20020;-85
2021/09/11 04:44:54;;;;;;;49.28;27.38;;;;;;;16.18;100.00;100445.72;5097031;28;20392;-85
2021/09/11 04:47:19;;;;;;;49.85;26.65;;;;;;;16.21;100.00;100443.81;5078610;28;20077;-85
2021/09/11 04:49:44;;;;;;;49.28;26.40;;;;;;;16.23;100.00;100438.53;5077554;28;20253;-86
2021/09/11 04:52:10;;;;;;;48.15;26.77;;;;;;;16.19;100.00;100442.19;5077484;28;20432;-86
2021/09/11 04:54:35;;;;;;;51.20;26.25;;;;;;;16.16;100.00;100434.47;5096284;28;20081;-85
2021/09/11 04:57:00;;;;;;;44.75;26.85;;;;;;;16.23;100.00;100439.38;5077826;28;20035;-86
2021/09/11 04:59:26;;;;;;;57.63;28.77;;;;;;;16.14;100.00;100442.41;5077260;28;20081;-86
2021/09/11 05:01:51;;;;;;;54.08;29.73;;;;;;;16.16;100.00;100437.06;5077518;28;20024;-85
2021/09/11 05:04:17;;;;;;;50.85;28.45;;;;;;;16.16;100.00;100453.63;5095423;28;20173;-86
2021/09/11 05:06:42;;;;;;;56.30;28.40;;;;;;;16.15;100.00;100441.47;5077340;28;20111;-86
2021/09/11 05:09:08;;;;;;;52.83;26.58;;;;;;;16.17;100.00;100447.50;5077150;28;20048;-86
2021/09/11 05:11:33;;;;;;;48.90;27.50;;;;;;;16.20;100.00;100444.75;5077051;28;20024;-86
2021/09/11 05:13:58;;;;;;;54.78;28.15;;;;;;;16.18;100.00;100441.34;5078299;28;20106;-85
2021/09/11 05:16:23;;;;;;;49.50;28.13;;;;;;;16.20;100.00;100442.13;5077261;28;20082;-85
2021/09/11 05:18:49;;;;;;;56.40;28.30;;;;;;;16.19;100.00;100435.19;5095577;28;20020;-85
2021/09/11 05:21:14;;;;;;;52.55;27.92;;;;;;;16.25;100.00;100449.75;5077243;28;20024;-85
2021/09/11 05:23:39;;;;;;;44.97;26.90;;;;;;;16.25;100.00;100445.38;5078291;28;20020;-85
2021/09/11 05:26:05;;;;;;;43.53;24.85;;;;;;;16.28;100.00;100447.84;5082245;28;20028;-86
2021/09/11 05:28:31;;;;;;;42.55;25.50;;;;;;;16.28;100.00;100445.25;5078720;28;20032;-86
2021/09/11 05:30:57;;;;;;;43.47;25.48;;;;;;;16.29;100.00;100441.72;5099149;28;20051;-85
2021/09/11 05:33:22;;;;;;;40.75;25.00;;;;;;;16.27;100.00;100447.94;5076904;28;20074;-86
2021/09/11 05:35:47;;;;;;;43.95;26.00;;;;;;;16.32;100.00;100454.69;5076712;28;20072;-86
2021/09/11 05:38:13;;;;;;;39.25;24.73;;;;;;;16.32;100.00;100453.84;5076419;28;20122;-86
2021/09/11 05:40:38;;;;;;;37.95;24.02;;;;;;;16.42;100.00;100455.13;5076552;28;20178;-86
2021/09/11 05:43:03;;;;;;;35.65;23.20;;;;;;;16.37;100.00;100451.84;5076864;28;20023;-86
2021/09/11 05:45:29;;;;;;;41.33;23.33;;;;;;;16.44;100.00;100449.81;5076621;28;20027;-86
2021/09/11 05:47:54;;;;;;;36.20;23.15;;;;;;;16.45;100.00;100449.75;5076655;28;20016;-86
2021/09/11 05:50:19;;;;;;;39.53;22.58;;;;;;;16.43;100.00;100445.50;5095241;28;20101;-86
2021/09/11 05:52:44;;;;;;;36.38;22.70;;;;;;;16.50;100.00;100446.91;5076659;28;20028;-86
2021/09/11 05:55:10;;;;;;;36.03;22.40;;;;;;;16.52;100.00;100451.16;5076262;28;20032;-86
2021/09/11 05:57:35;;;;;;;34.53;22.40;;;;;;;16.58;100.00;100452.66;5076951;28;20032;-86
2021/09/11 06:00:01;;;;;;;35.67;22.15;;;;;;;16.61;100.00;100449.06;5079478;28;20028;-85
2021/09/11 06:02:27;;;;;;;37.10;22.85;;;;;;;16.66;100.00;100447.09;5082865;28;20063;-84
2021/09/11 06:04:52;;;;;;;36.22;21.92;;;;;;;16.82;100.00;100461.22;5084884;28;20024;-85
2021/09/11 06:07:18;;;;;;;37.63;23.75;;;;;;;16.83;100.00;100459.44;5079483;28;20024;-85
2021/09/11 06:09:43;;;;;;;38.55;24.75;;;;;;;16.88;100.00;100458.31;5078991;28;20110;-85
2021/09/11 06:12:10;;;;;;;38.97;24.52;;;;;;;16.85;100.00;100457.63;5077942;28;20031;-85
2021/09/11 06:14:37;;;;;;;37.42;22.02;;;;;;;16.89;100.00;100456.56;5096238;28;20028;-85
2021/09/11 06:17:02;;;;;;;40.60;23.50;;;;;;;16.84;100.00;100453.28;5078211;28;20025;-85
2021/09/11 06:19:28;;;;;;;41.20;23.60;;;;;;;16.84;100.00;100459.41;5098579;28;20032;-85
2021/09/11 06:21:53;;;;;;;41.28;24.75;;;;;;;16.88;100.00;100457.47;5091470;28;20008;-83
2021/09/11 06:24:18;;;;;;;41.45;24.50;;;;;;;16.95;100.00;100458.88;5103330;28;20104;-84
2021/09/11 06:26:43;;;;;;;37.08;22.90;;;;;;;17.13;100.00;100467.66;5081974;28;20100;-85
2021/09/11 06:29:09;;;;;;;38.95;22.85;;;;;;;17.11;100.00;100464.25;5080992;28;20122;-85
2021/09/11 06:31:34;;;;;;;36.28;23.45;;;;;;;17.17;100.00;100467.44;5080300;28;20023;-86
2021/09/11 06:33:59;;;;;;;43.63;23.95;;;;;;;17.17;100.00;100463.97;5080223;28;20475;-85
2021/09/11 06:36:24;;;;;;;38.20;24.20;;;;;;;17.20;100.00;100461.22;5079786;28;20024;-85
2021/09/11 06:38:50;;;;;;;33.83;22.90;;;;;;;17.26;100.00;100460.91;5079757;28;20111;-85
2021/09/11 06:41:15;;;;;;;35.45;22.58;;;;;;;17.40;100.00;100460.28;5079160;28;20103;-87
2021/09/11 06:43:40;;;;;;;35.08;22.65;;;;;;;17.53;100.00;100460.53;5079311;28;20031;-86
2021/09/11 06:46:05;;;;;;;36.65;23.27;;;;;;;17.58;100.00;100459.38;5079579;28;20024;-86
2021/09/11 06:48:31;;;;;;;34.45;21.63;;;;;;;17.78;100.00;100460.19;5079584;28;20067;-86
2021/09/11 06:50:56;;;;;;;34.08;22.55;;;;;;;18.05;100.00;100461.44;5097956;28;20035;-86
2021/09/11 06:53:21;;;;;;;30.02;21.20;;;;;;;18.23;100.00;100458.81;5079384;28;20023;-86
2021/09/11 06:55:47;;;;;;;32.72;22.92;;;;;;;18.30;100.00;100452.31;5078892;28;20036;-86
2021/09/11 06:58:12;;;;;;;32.65;21.40;;;;;;;18.78;100.00;100453.28;5079317;28;20024;-86
2021/09/11 07:00:37;;;;;;;29.42;19.77;;;;;;;18.57;100.00;100457.88;5099375;28;20050;-86
2021/09/11 07:03:02;;;;;;;27.38;20.45;;;;;;;18.47;100.00;100459.28;5099867;28;20031;-86
2021/09/11 07:05:28;;;;;;;30.85;20.02;;;;;;;18.51;100.00;100461.69;5078672;28;20024;-86
2021/09/11 07:07:53;;;;;;;30.52;21.08;;;;;;;18.66;100.00;100456.53;5078861;28;20028;-86
2021/09/11 07:10:18;;;;;;;33.17;21.43;;;;;;;18.87;100.00;100463.28;5078912;28;20016;-86
2021/09/11 07:12:43;;;;;;;29.08;21.52;;;;;;;18.93;100.00;100462.13;5078797;28;20323;-86
2021/09/11 07:15:09;;;;;;;30.58;20.50;;;;;;;18.61;100.00;100465.50;5093879;28;20031;-84
2021/09/11 07:17:34;;;;;;;30.85;20.27;;;;;;;18.43;100.00;100463.84;5104306;28;20020;-84
2021/09/11 07:20:00;;;;;;;30.33;20.52;;;;;;;18.46;100.00;100471.56;5104068;28;20038;-85
2021/09/11 07:22:25;;;;;;;29.45;21.10;;;;;;;18.23;100.00;100469.31;5104166;28;20051;-84
2021/09/11 07:24:50;;;;;;;32.25;21.02;;;;;;;18.15;100.00;100473.16;5104130;28;20030;-85
2021/09/11 07:27:17;;;;;;;32.33;20.85;;;;;;;18.06;100.00;100485.91;5103495;28;20027;-84
2021/09/11 07:29:43;;;;;;;34.30;21.88;;;;;;;18.05;100.00;100479.81;5097275;28;20441;-86
2021/09/11 07:32:08;;;;;;;34.22;21.52;;;;;;;18.03;100.00;100486.91;5079431;28;20024;-86
2021/09/11 07:34:33;;;;;;;32.47;21.63;;;;;;;17.99;100.00;100481.91;5078645;28;20028;-86
2021/09/11 07:36:58;;;;;;;34.53;22.42;;;;;;;18.00;100.00;100487.06;5078386;28;20047;-86
2021/09/11 07:39:24;;;;;;;38.43;23.53;;;;;;;18.17;100.00;100487.06;5098003;28;20077;-85
2021/09/11 07:41:49;;;;;;;39.58;22.52;;;;;;;18.03;100.00;100486.06;5078195;28;20270;-86
2021/09/11 07:44:14;;;;;;;34.55;21.77;;;;;;;18.15;100.00;100480.19;5078202;28;20111;-86
2021/09/11 07:46:40;;;;;;;34.28;22.90;;;;;;;18.24;100.00;100478.88;5096117;28;20028;-85
2021/09/11 07:49:05;;;;;;;34.60;22.50;;;;;;;18.27;100.00;100474.31;5096083;28;20016;-85
2021/09/11 07:51:30;;;;;;;38.80;23.38;;;;;;;18.32;100.00;100477.56;5095759;28;20101;-85
2021/09/11 07:53:55;;;;;;;37.33;24.02;;;;;;;18.29;100.00;100479.50;5077924;28;20136;-86
2021/09/11 07:56:21;;;;;;;39.88;22.73;;;;;;;18.43;100.00;100479.63;5079515;28;20031;-85
2021/09/11 07:58:47;;;;;;;31.00;22.10;;;;;;;18.60;100.00;100481.38;5079364;28;20118;-86
2021/09/11 08:01:12;;;;;;;34.97;23.20;;;;;;;18.40;100.00;100488.50;5098950;28;20024;-85
2021/09/11 08:03:37;;;;;;;33.72;22.27;;;;;;;18.63;100.00;100489.94;5096954;28;20089;-86
2021/09/11 08:06:07;;;;;;;34.47;23.30;;;;;;;18.52;100.00;100494.03;5078318;28;20572;-86
2021/09/11 08:08:34;;;;;;;33.95;22.30;;;;;;;18.46;100.00;100487.31;5078420;28;20087;-86
2021/09/11 08:11:00;;;;;;;30.65;21.25;;;;;;;18.55;100.00;100493.88;5078502;28;20055;-86
2021/09/11 08:13:25;;;;;;;34.03;22.08;;;;;;;18.42;100.00;100493.69;5096460;28;20036;-87
2021/09/11 08:15:50;;;;;;;33.22;22.85;;;;;;;18.39;100.00;100494.69;5077504;28;20118;-87
2021/09/11 08:18:16;;;;;;;44.13;23.33;;;;;;;18.24;100.00;100502.50;5095844;28;20437;-87
2021/09/11 08:20:41;;;;;;;33.40;22.95;;;;;;;18.38;100.00;100492.13;5096316;28;20036;-87
2021/09/11 08:23:06;;;;;;;32.10;21.38;;;;;;;18.43;100.00;100491.91;5078111;28;20027;-87
2021/09/11 08:25:31;;;;;;;35.75;22.98;;;;;;;18.51;100.00;100498.47;5077830;28;20015;-87
2021/09/11 08:27:57;;;;;;;35.35;23.00;;;;;;;18.38;100.00;100495.63;5095395;28;20102;-87
2021/09/11 08:30:23;;;;;;;37.28;24.27;;;;;;;18.38;100.00;100500.88;5077863;28;20020;-87
2021/09/11 08:32:48;;;;;;;39.13;24.02;;;;;;;18.28;100.00;100515.38;5095826;28;20074;-87
2021/09/11 08:35:13;;;;;;;39.00;25.02;;;;;;;18.18;100.00;100515.00;5077246;28;20511;-87
2021/09/11 08:37:39;;;;;;;45.65;24.70;;;;;;;18.02;100.00;100521.13;5078023;28;20024;-87
2021/09/11 08:40:05;;;;;;;37.33;25.15;;;;;;;18.00;100.00;100529.03;5077962;28;20100;-87
2021/09/11 08:42:31;;;;;;;42.72;25.88;;;;;;;17.78;100.00;100529.25;5098312;28;20024;-86
2021/09/11 08:44:56;;;;;;;40.58;26.25;;;;;;;17.69;100.00;100527.88;5090961;28;20123;-87
2021/09/11 08:47:22;;;;;;;40.63;25.63;;;;;;;17.76;100.00;100535.47;5077272;28;20020;-87
2021/09/11 08:49:47;;;;;;;37.42;24.27;;;;;;;17.76;100.00;100540.72;5077221;28;20403;-87
2021/09/11 08:52:13;;;;;;;42.00;25.55;;;;;;;17.87;100.00;100543.72;5077637;28;20020;-87
2021/09/11 08:54:38;;;;;;;37.88;24.30;;;;;;;17.84;100.00;100535.97;5076986;28;20028;-87
2021/09/11 08:57:25;;;;;;;39.67;24.70;;;;;;;17.90;100.00;100540.94;5076571;28;20048;-87
2021/09/11 08:59:52;;;;;;;39.67;25.50;;;;;;;17.79;100.00;100543.22;5094771;28;20034;-87
2021/09/11 09:02:20;;;;;;;41.55;25.27;;;;;;;17.84;100.00;100543.84;5095790;28;20028;-87
2021/09/11 09:04:50;;;;;;;41.25;24.77;;;;;;;17.86;100.00;100547.25;5076511;28;20110;-87
2021/09/11 09:07:38;;;;;;;40.35;25.33;;;;;;;17.96;100.00;100545.88;5076670;28;20502;-87
2021/09/11 09:10:15;;;;;;;39.10;25.70;;;;;;;18.02;100.00;100542.97;5077189;28;20119;-87
2021/09/11 09:12:43;;;;;;;39.22;25.13;;;;;;;18.02;100.00;100542.97;5076803;28;20028;-87
2021/09/11 09:15:14;;;;;;;40.55;26.70;;;;;;;18.02;100.00;100542.97;5091510;28;20014;-85
2021/09/11 09:17:46;;;;;;;46.63;26.23;;;;;;;18.05;100.00;100540.19;5102343;28;20052;-85
2021/09/11 09:20:13;;;;;;;46.92;25.67;;;;;;;18.31;100.00;100549.34;5102282;28;20019;-84
2021/09/11 09:22:38;;;;;;;38.60;25.45;;;;;;;18.50;100.00;100546.63;5102211;28;20019;-85
2021/09/11 09:25:06;;;;;;;39.33;24.88;;;;;;;19.36;100.00;100541.25;5102127;28;20031;-86
2021/09/11 09:27:31;;;;;;;33.70;23.52;;;;;;;19.52;100.00;100547.41;5101862;28;20011;-84
2021/09/11 09:30:01;;;;;;;33.22;23.30;;;;;;;19.40;100.00;100541.03;5102097;28;20009;-86
2021/09/11 09:32:36;;;;;;;37.13;22.95;;;;;;;19.13;100.00;100537.28;5101969;28;20033;-86
2021/09/11 09:35:16;;;;;;;32.03;21.88;;;;;;;19.04;100.00;100536.00;5100752;28;20023;-86
2021/09/11 09:37:59;;;;;;;32.20;20.77;;;;;;;19.62;100.00;100535.41;5113892;28;20031;-86
2021/09/11 09:40:49;;;;;;;30.65;21.60;;;;;;;19.97;100.00;100530.78;5098728;28;20023;-87
2021/09/11 09:43:29;;;;;;;31.92;21.50;;;;;;;19.92;100.00;100540.75;5076597;28;20035;-87
2021/09/11 09:46:09;;;;;;;31.60;20.83;;;;;;;19.71;100.00;100534.94;5077119;28;20422;-87
2021/09/11 09:48:36;;;;;;;31.30;21.13;;;;;;;21.75;100.00;100529.63;5095269;28;20024;-87
2021/09/11 09:51:05;;;;;;;32.17;20.85;;;;;;;23.12;100.00;100523.84;5094728;28;20429;-87
2021/09/11 09:53:31;;;;;;;32.85;20.67;;;;;;;23.58;100.00;100526.66;5076801;28;20140;-87
2021/09/11 09:55:57;;;;;;;30.80;20.30;;;;;;;23.07;100.00;100520.69;5120804;22;20044;-91
2021/09/11 09:58:22;;;;;;;28.20;18.77;;;;;;;24.45;100.00;100521.97;5079400;28;20131;-91
2021/09/11 10:00:48;;;;;;;28.30;18.20;;;;;;;23.03;100.00;100519.19;5097332;28;20027;-91
2021/09/11 10:03:13;;;;;;;28.60;16.90;;;;;;;22.83;100.00;100518.78;5079379;28;20476;-91
2021/09/11 10:05:41;;;;;;;22.55;14.55;;;;;;;22.41;100.00;100512.84;5079164;28;20392;-91
2021/09/11 10:08:10;;;;;;;23.65;15.10;;;;;;;22.82;100.00;100522.38;5079445;28;20027;-91
2021/09/11 10:10:38;;;;;;;24.23;15.57;;;;;;;22.71;100.00;100519.63;5097200;28;20500;-91
2021/09/11 10:13:08;;;;;;;22.23;13.68;;;;;;;22.07;100.00;100527.47;5079071;28;20027;-91
2021/09/11 10:15:38;;;;;;;22.75;15.10;;;;;;;21.77;100.00;100519.81;5078989;28;20552;-91
2021/09/11 10:18:22;;;;;;;21.45;14.52;;;;;;;21.81;100.00;100530.06;5097102;28;20027;-91
2021/09/11 10:21:10;;;;;;;25.35;15.60;;;;;;;21.52;100.00;100521.41;5062351;28;20024;-90
2021/09/11 10:23:35;;;;;;;23.48;16.35;;;;;;;21.10;100.00;100522.31;5078884;28;20189;-91
2021/09/11 10:26:01;;;;;;;21.05;15.13;;;;;;;22.02;100.00;100524.31;5079670;28;20060;-91
2021/09/11 10:28:26;;;;;;;21.77;14.30;;;;;;;23.07;100.00;100520.69;5079732;28;20028;-91
2021/09/11 10:31:06;;;;;;;21.20;14.05;;;;;;;23.37;100.00;100520.28;5078841;28;20013;-90
2021/09/11 10:33:39;;;;;;;20.70;13.95;;;;;;;24.80;100.00;100510.41;5096848;28;20394;-90
2021/09/11 10:36:04;;;;;;;22.55;15.02;;;;;;;24.30;100.00;100512.53;5096724;28;20020;-90
2021/09/11 10:38:41;;;;;;;21.23;14.90;;;;;;;23.79;100.00;100513.66;5078454;28;20027;-90
2021/09/11 10:41:11;;;;;;;18.38;13.80;;;;;;;22.38;100.00;100505.13;5078431;28;20028;-90
2021/09/11 10:43:37;;;;;;;20.17;13.95;;;;;;;21.98;100.00;100514.88;5078485;28;20069;-90
2021/09/11 10:46:08;;;;;;;18.33;13.35;;;;;;;21.17;100.00;100515.69;5078370;28;20028;-90
2021/09/11 10:48:36;;;;;;;18.85;12.73;;;;;;;20.73;100.00;100514.03;5078457;28;20430;-90
2021/09/11 10:51:35;;;;;;;16.67;12.10;;;;;;;20.34;100.00;100510.19;5078271;28;20480;-90
2021/09/11 10:54:24;;;;;;;16.77;12.80;;;;;;;19.92;100.00;100513.56;5073042;28;20165;-91
2021/09/11 10:56:51;;;;;;;18.52;12.48;;;;;;;19.91;100.00;100517.97;5067944;28;20040;-91
2021/09/11 10:59:19;;;;;;;20.42;13.65;;;;;;;19.66;100.00;100513.28;5078077;28;20082;-91
2021/09/11 11:01:56;;;;;;;18.50;13.25;;;;;;;19.90;100.00;100518.94;5078061;28;20039;-91